sensor_id;sensor_type;location;lat;lon;timestamp;pressure;altitude;pressure_sealevel;temperature;humidity
70072;BME280;57434;42.794;23.302;2023-10-19T00:00:36;95721.06;;;7.26;85.93
70072;BME280;57434;42.794;23.302;2023-10-19T00:01:38;95764.28;;;7.58;86.24
70072;BME280;57434;42.794;23.302;2023-10-19T00:02:40;95752.19;;;7.52;86.43
70072;BME280;57434;42.794;23.302;2023-10-19T00:03:42;95777.47;;;7.58;86.90
70072;BME280;57434;42.794;23.302;2023-10-19T00:04:44;95776.59;;;7.42;87.68
70072;BME280;57434;42.794;23.302;2023-10-19T00:05:46;95603.94;;;6.47;88.01
70072;BME280;57434;42.794;23.302;2023-10-19T00:06:48;95666.63;;;6.89;87.93
70072;BME280;57434;42.794;23.302;2023-10-19T00:07:50;95744.34;;;7.32;88.01
70072;BME280;57434;42.794;23.302;2023-10-19T00:08:52;95771.09;;;7.57;87.88
70072;BME280;57434;42.794;23.302;2023-10-19T00:09:54;95738.59;;;7.36;87.73
70072;BME280;57434;42.794;23.302;2023-10-19T00:10:55;95734.72;;;7.24;87.47
70072;BME280;57434;42.794;23.302;2023-10-19T00:11:57;95712.25;;;7.19;87.27
70072;BME280;57434;42.794;23.302;2023-10-19T00:12:59;95757.16;;;7.48;87.36
70072;BME280;57434;42.794;23.302;2023-10-19T00:14:01;95596.03;;;6.46;87.04
70072;BME280;57434;42.794;23.302;2023-10-19T00:15:03;95773.28;;;7.53;87.19
70072;BME280;57434;42.794;23.302;2023-10-19T00:16:07;95753.63;;;7.38;86.99
70072;BME280;57434;42.794;23.302;2023-10-19T00:17:09;95769.84;;;7.58;86.84
70072;BME280;57434;42.794;23.302;2023-10-19T00:18:10;95765.50;;;7.66;86.82
70072;BME280;57434;42.794;23.302;2023-10-19T00:19:12;95778.06;;;7.62;86.86
70072;BME280;57434;42.794;23.302;2023-10-19T00:20:14;95749.41;;;7.52;86.83
70072;BME280;57434;42.794;23.302;2023-10-19T00:21:16;95733.09;;;7.60;86.46
70072;BME280;57434;42.794;23.302;2023-10-19T00:22:18;95593.81;;;6.68;86.25
70072;BME280;57434;42.794;23.302;2023-10-19T00:23:22;95761.72;;;7.78;86.24
70072;BME280;57434;42.794;23.302;2023-10-19T00:24:24;95591.50;;;6.67;85.93
70072;BME280;57434;42.794;23.302;2023-10-19T00:25:26;95612.25;;;6.75;85.83
70072;BME280;57434;42.794;23.302;2023-10-19T00:26:27;95755.72;;;7.71;85.52
70072;BME280;57434;42.794;23.302;2023-10-19T00:27:29;95702.13;;;7.30;85.11
70072;BME280;57434;42.794;23.302;2023-10-19T00:28:31;95599.75;;;6.52;85.11
70072;BME280;57434;42.794;23.302;2023-10-19T00:29:33;95748.81;;;7.30;84.95
70072;BME280;57434;42.794;23.302;2023-10-19T00:30:35;95759.50;;;7.31;85.06
70072;BME280;57434;42.794;23.302;2023-10-19T00:31:36;95752.56;;;7.18;85.00
70072;BME280;57434;42.794;23.302;2023-10-19T00:32:39;95742.34;;;7.14;84.83
70072;BME280;57434;42.794;23.302;2023-10-19T00:33:41;95724.84;;;7.05;84.58
70072;BME280;57434;42.794;23.302;2023-10-19T00:34:42;95765.09;;;7.22;84.82
70072;BME280;57434;42.794;23.302;2023-10-19T00:35:44;95751.47;;;7.33;84.68
70072;BME280;57434;42.794;23.302;2023-10-19T00:36:46;95731.91;;;7.24;84.44
70072;BME280;57434;42.794;23.302;2023-10-19T00:37:48;95744.66;;;7.34;84.74
70072;BME280;57434;42.794;23.302;2023-10-19T00:38:50;95750.69;;;7.33;85.10
70072;BME280;57434;42.794;23.302;2023-10-19T00:39:54;95731.75;;;7.28;85.01
70072;BME280;57434;42.794;23.302;2023-10-19T00:40:56;95745.56;;;7.31;85.13
70072;BME280;57434;42.794;23.302;2023-10-19T00:41:58;95637.53;;;6.62;85.11
70072;BME280;57434;42.794;23.302;2023-10-19T00:43:03;95741.88;;;7.16;85.44
70072;BME280;57434;42.794;23.302;2023-10-19T00:44:05;95753.19;;;7.03;85.90
70072;BME280;57434;42.794;23.302;2023-10-19T00:45:07;95599.47;;;5.86;87.26
70072;BME280;57434;42.794;23.302;2023-10-19T00:46:13;95732.47;;;6.77;87.37
70072;BME280;57434;42.794;23.302;2023-10-19T00:47:16;95737.88;;;6.90;87.42
70072;BME280;57434;42.794;23.302;2023-10-19T00:48:17;95753.19;;;6.94;86.76
70072;BME280;57434;42.794;23.302;2023-10-19T00:49:19;95753.66;;;7.02;86.70
70072;BME280;57434;42.794;23.302;2023-10-19T00:50:21;95752.59;;;6.81;86.32
70072;BME280;57434;42.794;23.302;2023-10-19T00:51:26;95728.91;;;6.86;86.05
70072;BME280;57434;42.794;23.302;2023-10-19T00:52:28;95573.03;;;5.72;85.88
70072;BME280;57434;42.794;23.302;2023-10-19T00:53:30;95757.72;;;6.92;85.74
70072;BME280;57434;42.794;23.302;2023-10-19T00:54:32;95583.69;;;5.74;85.24
70072;BME280;57434;42.794;23.302;2023-10-19T00:55:35;95759.88;;;6.78;85.11
70072;BME280;57434;42.794;23.302;2023-10-19T00:56:37;95705.97;;;6.36;85.06
70072;BME280;57434;42.794;23.302;2023-10-19T00:57:40;95721.28;;;6.40;85.03
70072;BME280;57434;42.794;23.302;2023-10-19T00:58:44;95767.75;;;6.43;84.96
70072;BME280;57434;42.794;23.302;2023-10-19T00:59:47;95607.13;;;5.45;84.98
70072;BME280;57434;42.794;23.302;2023-10-19T01:00:49;95753.97;;;6.40;85.22
70072;BME280;57434;42.794;23.302;2023-10-19T01:01:52;95746.38;;;6.40;85.07
70072;BME280;57434;42.794;23.302;2023-10-19T01:02:54;95582.53;;;5.26;84.99
70072;BME280;57434;42.794;23.302;2023-10-19T01:03:56;95751.03;;;6.34;84.88
70072;BME280;57434;42.794;23.302;2023-10-19T01:04:58;95724.22;;;6.19;84.79
70072;BME280;57434;42.794;23.302;2023-10-19T01:06:00;95607.91;;;5.46;84.18
70072;BME280;57434;42.794;23.302;2023-10-19T01:07:02;95596.06;;;5.15;84.06
70072;BME280;57434;42.794;23.302;2023-10-19T01:08:04;95721.50;;;5.88;84.54
70072;BME280;57434;42.794;23.302;2023-10-19T01:09:06;95736.97;;;5.89;84.61
70072;BME280;57434;42.794;23.302;2023-10-19T01:10:08;95599.56;;;5.06;84.56
70072;BME280;57434;42.794;23.302;2023-10-19T01:11:11;95744.41;;;5.92;84.32
70072;BME280;57434;42.794;23.302;2023-10-19T01:12:13;95626.78;;;5.11;83.99
70072;BME280;57434;42.794;23.302;2023-10-19T01:13:15;95752.66;;;5.55;83.80
70072;BME280;57434;42.794;23.302;2023-10-19T01:14:21;95569.66;;;4.26;83.95
70072;BME280;57434;42.794;23.302;2023-10-19T01:15:23;95725.31;;;5.32;84.42
70072;BME280;57434;42.794;23.302;2023-10-19T01:16:25;95670.56;;;4.89;84.50
70072;BME280;57434;42.794;23.302;2023-10-19T01:17:27;95759.78;;;5.34;84.74
70072;BME280;57434;42.794;23.302;2023-10-19T01:18:28;95701.88;;;5.11;84.68
70072;BME280;57434;42.794;23.302;2023-10-19T01:19:30;95754.28;;;5.43;84.51
70072;BME280;57434;42.794;23.302;2023-10-19T01:20:32;95743.75;;;5.38;84.25
70072;BME280;57434;42.794;23.302;2023-10-19T01:21:34;95736.63;;;5.37;83.83
70072;BME280;57434;42.794;23.302;2023-10-19T01:22:36;95753.72;;;5.58;83.07
70072;BME280;57434;42.794;23.302;2023-10-19T01:23:38;95684.53;;;4.98;83.02
70072;BME280;57434;42.794;23.302;2023-10-19T01:24:39;95758.63;;;5.44;83.35
70072;BME280;57434;42.794;23.302;2023-10-19T01:25:43;95579.53;;;4.27;83.36
70072;BME280;57434;42.794;23.302;2023-10-19T01:26:45;95753.91;;;5.32;83.75
70072;BME280;57434;42.794;23.302;2023-10-19T01:27:47;95758.44;;;5.39;84.05
70072;BME280;57434;42.794;23.302;2023-10-19T01:28:49;95757.53;;;5.42;84.09
70072;BME280;57434;42.794;23.302;2023-10-19T01:29:50;95761.78;;;5.56;84.67
70072;BME280;57434;42.794;23.302;2023-10-19T01:30:52;95760.03;;;5.80;85.32
70072;BME280;57434;42.794;23.302;2023-10-19T01:31:54;95719.28;;;5.64;85.04
70072;BME280;57434;42.794;23.302;2023-10-19T01:32:56;95743.28;;;5.71;84.21
70072;BME280;57434;42.794;23.302;2023-10-19T01:34:00;95581.00;;;4.63;83.88
70072;BME280;57434;42.794;23.302;2023-10-19T01:35:02;95769.38;;;5.64;83.60
70072;BME280;57434;42.794;23.302;2023-10-19T01:36:25;95765.22;;;5.69;83.51
70072;BME280;57434;42.794;23.302;2023-10-19T01:37:27;95785.03;;;5.71;83.62
70072;BME280;57434;42.794;23.302;2023-10-19T01:38:30;95601.66;;;4.62;83.32
70072;BME280;57434;42.794;23.302;2023-10-19T01:39:35;95731.25;;;5.43;83.12
70072;BME280;57434;42.794;23.302;2023-10-19T01:40:37;95763.72;;;5.46;83.67
70072;BME280;57434;42.794;23.302;2023-10-19T01:41:39;95581.47;;;4.39;83.65
70072;BME280;57434;42.794;23.302;2023-10-19T01:42:40;95765.50;;;5.62;83.80
70072;BME280;57434;42.794;23.302;2023-10-19T01:43:43;95772.22;;;5.42;83.64
70072;BME280;57434;42.794;23.302;2023-10-19T01:44:45;95741.53;;;5.24;83.69
70072;BME280;57434;42.794;23.302;2023-10-19T01:45:47;95595.63;;;4.32;83.48
70072;BME280;57434;42.794;23.302;2023-10-19T01:46:49;95768.31;;;5.40;83.88
70072;BME280;57434;42.794;23.302;2023-10-19T01:47:51;95677.09;;;4.95;84.00
70072;BME280;57434;42.794;23.302;2023-10-19T01:48:54;95774.63;;;5.62;84.32
70072;BME280;57434;42.794;23.302;2023-10-19T01:49:55;95780.41;;;5.77;84.72
70072;BME280;57434;42.794;23.302;2023-10-19T01:50:59;95783.69;;;5.85;84.34
70072;BME280;57434;42.794;23.302;2023-10-19T01:52:01;95748.19;;;5.67;84.19
70072;BME280;57434;42.794;23.302;2023-10-19T01:53:03;95759.56;;;5.82;83.93
70072;BME280;57434;42.794;23.302;2023-10-19T01:54:06;95740.75;;;5.64;83.46
70072;BME280;57434;42.794;23.302;2023-10-19T01:55:08;95775.44;;;5.72;83.29
70072;BME280;57434;42.794;23.302;2023-10-19T01:56:11;95761.78;;;5.65;83.01
70072;BME280;57434;42.794;23.302;2023-10-19T01:57:13;95734.16;;;5.70;83.65
70072;BME280;57434;42.794;23.302;2023-10-19T01:58:15;95749.44;;;5.66;84.80
70072;BME280;57434;42.794;23.302;2023-10-19T01:59:16;95751.53;;;5.84;84.95
70072;BME280;57434;42.794;23.302;2023-10-19T02:04:26;95766.28;;;5.62;83.83
70072;BME280;57434;42.794;23.302;2023-10-19T02:05:28;95737.84;;;5.67;83.75
70072;BME280;57434;42.794;23.302;2023-10-19T02:06:32;95627.50;;;4.93;83.46
70072;BME280;57434;42.794;23.302;2023-10-19T02:07:34;95759.94;;;5.62;83.43
70072;BME280;57434;42.794;23.302;2023-10-19T02:08:36;95756.50;;;5.58;83.44
70072;BME280;57434;42.794;23.302;2023-10-19T02:09:38;95762.69;;;5.53;83.55
70072;BME280;57434;42.794;23.302;2023-10-19T02:10:40;95618.28;;;4.84;83.31
70072;BME280;57434;42.794;23.302;2023-10-19T02:11:42;95736.16;;;5.39;83.43
70072;BME280;57434;42.794;23.302;2023-10-19T02:12:43;95569.53;;;4.30;83.26
70072;BME280;57434;42.794;23.302;2023-10-19T02:13:45;95782.44;;;5.45;83.44
70072;BME280;57434;42.794;23.302;2023-10-19T02:14:48;95769.47;;;5.52;83.54
70072;BME280;57434;42.794;23.302;2023-10-19T02:15:49;95744.78;;;5.32;83.56
70072;BME280;57434;42.794;23.302;2023-10-19T02:16:53;95772.53;;;5.44;83.40
70072;BME280;57434;42.794;23.302;2023-10-19T02:17:55;95743.41;;;5.36;83.51
70072;BME280;57434;42.794;23.302;2023-10-19T02:18:57;95756.56;;;5.36;83.81
70072;BME280;57434;42.794;23.302;2023-10-19T02:19:59;95773.25;;;5.36;83.96
70072;BME280;57434;42.794;23.302;2023-10-19T02:21:01;95760.56;;;5.35;83.61
70072;BME280;57434;42.794;23.302;2023-10-19T02:22:03;95769.81;;;5.54;84.26
70072;BME280;57434;42.794;23.302;2023-10-19T02:23:04;95731.50;;;5.27;84.15
70072;BME280;57434;42.794;23.302;2023-10-19T02:24:07;95787.63;;;5.34;84.41
70072;BME280;57434;42.794;23.302;2023-10-19T02:25:09;95740.94;;;5.07;84.34
70072;BME280;57434;42.794;23.302;2023-10-19T02:26:11;95758.22;;;5.24;84.49
70072;BME280;57434;42.794;23.302;2023-10-19T02:27:13;95750.66;;;5.34;84.63
70072;BME280;57434;42.794;23.302;2023-10-19T02:28:33;95731.94;;;5.25;84.20
70072;BME280;57434;42.794;23.302;2023-10-19T02:29:35;95677.13;;;4.82;83.89
70072;BME280;57434;42.794;23.302;2023-10-19T02:30:36;95753.28;;;5.06;83.94
70072;BME280;57434;42.794;23.302;2023-10-19T02:31:40;95780.84;;;5.14;83.77
70072;BME280;57434;42.794;23.302;2023-10-19T02:32:42;95718.38;;;4.84;84.04
70072;BME280;57434;42.794;23.302;2023-10-19T02:33:46;95761.50;;;5.10;84.40
70072;BME280;57434;42.794;23.302;2023-10-19T02:34:48;95712.25;;;4.89;84.26
70072;BME280;57434;42.794;23.302;2023-10-19T02:35:50;95768.75;;;5.07;84.05
70072;BME280;57434;42.794;23.302;2023-10-19T02:36:52;95749.56;;;5.00;84.08
70072;BME280;57434;42.794;23.302;2023-10-19T02:37:54;95757.59;;;5.29;83.69
70072;BME280;57434;42.794;23.302;2023-10-19T02:39:58;95561.72;;;3.94;83.21
70072;BME280;57434;42.794;23.302;2023-10-19T02:41:00;95755.63;;;5.08;83.70
70072;BME280;57434;42.794;23.302;2023-10-19T02:42:01;95729.59;;;4.93;84.02
70072;BME280;57434;42.794;23.302;2023-10-19T02:43:03;95623.31;;;4.23;84.06
70072;BME280;57434;42.794;23.302;2023-10-19T02:44:08;95733.50;;;4.83;84.01
70072;BME280;57434;42.794;23.302;2023-10-19T02:45:10;95574.31;;;3.86;83.46
70072;BME280;57434;42.794;23.302;2023-10-19T02:46:13;95618.84;;;4.04;83.49
70072;BME280;57434;42.794;23.302;2023-10-19T02:47:15;95672.06;;;4.24;83.36
70072;BME280;57434;42.794;23.302;2023-10-19T02:48:17;95753.53;;;4.77;83.51
70072;BME280;57434;42.794;23.302;2023-10-19T02:49:21;95756.50;;;4.83;83.54
70072;BME280;57434;42.794;23.302;2023-10-19T02:50:23;95730.13;;;4.66;83.63
70072;BME280;57434;42.794;23.302;2023-10-19T02:51:25;95738.59;;;4.84;83.77
70072;BME280;57434;42.794;23.302;2023-10-19T02:52:26;95747.03;;;4.93;83.96
70072;BME280;57434;42.794;23.302;2023-10-19T02:53:28;95760.72;;;4.88;83.89
70072;BME280;57434;42.794;23.302;2023-10-19T02:54:30;95624.16;;;4.11;83.79
70072;BME280;57434;42.794;23.302;2023-10-19T02:55:32;95736.53;;;4.75;83.49
70072;BME280;57434;42.794;23.302;2023-10-19T02:56:35;95754.50;;;4.84;83.61
70072;BME280;57434;42.794;23.302;2023-10-19T02:57:37;95728.84;;;4.79;83.42
70072;BME280;57434;42.794;23.302;2023-10-19T02:58:41;95588.53;;;3.75;83.15
70072;BME280;57434;42.794;23.302;2023-10-19T02:59:43;95744.81;;;4.66;83.14
70072;BME280;57434;42.794;23.302;2023-10-19T03:00:45;95735.44;;;4.73;83.57
70072;BME280;57434;42.794;23.302;2023-10-19T03:01:47;95552.38;;;3.66;84.49
70072;BME280;57434;42.794;23.302;2023-10-19T03:02:48;95757.16;;;4.87;85.35
70072;BME280;57434;42.794;23.302;2023-10-19T03:03:51;95751.56;;;5.00;85.28
70072;BME280;57434;42.794;23.302;2023-10-19T03:04:53;95724.94;;;4.90;84.99
70072;BME280;57434;42.794;23.302;2023-10-19T03:05:55;95747.81;;;4.94;84.93
70072;BME280;57434;42.794;23.302;2023-10-19T03:06:57;95554.47;;;3.74;84.42
70072;BME280;57434;42.794;23.302;2023-10-19T03:07:59;95753.72;;;4.83;84.75
70072;BME280;57434;42.794;23.302;2023-10-19T03:09:04;95726.69;;;4.96;84.53
70072;BME280;57434;42.794;23.302;2023-10-19T03:10:06;95721.59;;;4.82;85.01
70072;BME280;57434;42.794;23.302;2023-10-19T03:11:08;95722.25;;;4.64;85.13
70072;BME280;57434;42.794;23.302;2023-10-19T03:12:10;95721.06;;;4.74;85.23
70072;BME280;57434;42.794;23.302;2023-10-19T03:13:12;95768.06;;;4.94;85.17
70072;BME280;57434;42.794;23.302;2023-10-19T03:14:14;95748.88;;;4.74;85.18
70072;BME280;57434;42.794;23.302;2023-10-19T03:15:16;95566.34;;;3.40;85.06
70072;BME280;57434;42.794;23.302;2023-10-19T03:16:18;95704.19;;;4.25;85.41
70072;BME280;57434;42.794;23.302;2023-10-19T03:17:20;95741.16;;;4.22;85.63
70072;BME280;57434;42.794;23.302;2023-10-19T03:18:21;95612.25;;;3.41;86.35
70072;BME280;57434;42.794;23.302;2023-10-19T03:19:23;95565.16;;;3.16;86.94
70072;BME280;57434;42.794;23.302;2023-10-19T03:20:25;95775.78;;;4.43;87.56
70072;BME280;57434;42.794;23.302;2023-10-19T03:21:27;95729.16;;;4.25;87.90
70072;BME280;57434;42.794;23.302;2023-10-19T03:22:29;95721.59;;;4.26;88.11
70072;BME280;57434;42.794;23.302;2023-10-19T03:23:30;95739.34;;;4.41;87.81
70072;BME280;57434;42.794;23.302;2023-10-19T03:24:32;95742.38;;;4.34;87.85
70072;BME280;57434;42.794;23.302;2023-10-19T03:25:34;95737.94;;;4.24;87.73
70072;BME280;57434;42.794;23.302;2023-10-19T03:26:36;95620.66;;;3.63;87.38
70072;BME280;57434;42.794;23.302;2023-10-19T03:27:37;95724.47;;;4.35;87.67
70072;BME280;57434;42.794;23.302;2023-10-19T03:28:39;95717.84;;;4.54;87.64
70072;BME280;57434;42.794;23.302;2023-10-19T03:29:42;95750.91;;;4.74;87.33
70072;BME280;57434;42.794;23.302;2023-10-19T03:30:44;95718.75;;;4.51;87.55
70072;BME280;57434;42.794;23.302;2023-10-19T03:31:46;95756.28;;;4.90;87.52
70072;BME280;57434;42.794;23.302;2023-10-19T03:32:47;95737.16;;;4.79;87.55
70072;BME280;57434;42.794;23.302;2023-10-19T03:33:49;95737.28;;;4.89;87.64
70072;BME280;57434;42.794;23.302;2023-10-19T03:34:52;95708.03;;;4.62;87.26
70072;BME280;57434;42.794;23.302;2023-10-19T03:35:54;95732.66;;;4.73;87.10
70072;BME280;57434;42.794;23.302;2023-10-19T03:36:56;95567.91;;;3.76;87.25
70072;BME280;57434;42.794;23.302;2023-10-19T03:37:57;95583.00;;;3.97;87.43
70072;BME280;57434;42.794;23.302;2023-10-19T03:38:59;95733.91;;;4.94;87.57
70072;BME280;57434;42.794;23.302;2023-10-19T03:40:01;95742.78;;;5.01;87.86
70072;BME280;57434;42.794;23.302;2023-10-19T03:41:03;95746.50;;;5.07;87.66
70072;BME280;57434;42.794;23.302;2023-10-19T03:42:05;95625.63;;;4.25;87.49
70072;BME280;57434;42.794;23.302;2023-10-19T03:43:07;95705.56;;;4.86;87.67
70072;BME280;57434;42.794;23.302;2023-10-19T03:44:09;95549.03;;;3.71;87.35
70072;BME280;57434;42.794;23.302;2023-10-19T03:45:11;95731.59;;;4.92;87.74
70072;BME280;57434;42.794;23.302;2023-10-19T03:46:12;95719.91;;;4.85;87.85
70072;BME280;57434;42.794;23.302;2023-10-19T03:47:14;95743.47;;;4.93;87.82
70072;BME280;57434;42.794;23.302;2023-10-19T03:48:18;95760.41;;;5.07;87.75
70072;BME280;57434;42.794;23.302;2023-10-19T03:49:20;95739.66;;;4.99;87.58
70072;BME280;57434;42.794;23.302;2023-10-19T03:50:22;95697.59;;;4.75;87.71
70072;BME280;57434;42.794;23.302;2023-10-19T03:51:27;95553.56;;;3.78;87.72
70072;BME280;57434;42.794;23.302;2023-10-19T03:52:28;95763.75;;;5.02;88.19
70072;BME280;57434;42.794;23.302;2023-10-19T03:53:30;95547.97;;;3.90;88.29
70072;BME280;57434;42.794;23.302;2023-10-19T03:54:32;95735.84;;;5.06;88.39
70072;BME280;57434;42.794;23.302;2023-10-19T03:55:34;95731.63;;;5.23;88.52
70072;BME280;57434;42.794;23.302;2023-10-19T03:56:35;95733.50;;;5.26;88.41
70072;BME280;57434;42.794;23.302;2023-10-19T03:57:37;95614.22;;;4.44;88.47
70072;BME280;57434;42.794;23.302;2023-10-19T03:58:39;95690.88;;;4.86;88.86
70072;BME280;57434;42.794;23.302;2023-10-19T03:59:41;95701.19;;;4.98;88.60
70072;BME280;57434;42.794;23.302;2023-10-19T04:00:43;95714.66;;;4.99;88.65
70072;BME280;57434;42.794;23.302;2023-10-19T04:01:45;95717.28;;;5.03;89.21
70072;BME280;57434;42.794;23.302;2023-10-19T04:02:46;95738.44;;;5.00;89.21
70072;BME280;57434;42.794;23.302;2023-10-19T04:03:48;95630.38;;;4.37;89.59
70072;BME280;57434;42.794;23.302;2023-10-19T04:04:50;95607.94;;;4.31;89.68
70072;BME280;57434;42.794;23.302;2023-10-19T04:05:52;95742.03;;;5.10;89.64
70072;BME280;57434;42.794;23.302;2023-10-19T04:06:54;95746.94;;;5.28;89.49
70072;BME280;57434;42.794;23.302;2023-10-19T04:07:56;95766.03;;;5.17;89.34
70072;BME280;57434;42.794;23.302;2023-10-19T04:08:58;95714.00;;;4.95;89.29
70072;BME280;57434;42.794;23.302;2023-10-19T04:10:00;95739.50;;;5.25;89.31
70072;BME280;57434;42.794;23.302;2023-10-19T04:11:02;95631.38;;;4.52;88.93
70072;BME280;57434;42.794;23.302;2023-10-19T04:12:04;95688.41;;;5.00;88.89
70072;BME280;57434;42.794;23.302;2023-10-19T04:13:05;95731.34;;;4.99;88.61
70072;BME280;57434;42.794;23.302;2023-10-19T04:14:07;95750.56;;;5.16;89.05
70072;BME280;57434;42.794;23.302;2023-10-19T04:15:10;95578.56;;;3.99;89.24
70072;BME280;57434;42.794;23.302;2023-10-19T04:16:12;95545.78;;;3.85;89.32
70072;BME280;57434;42.794;23.302;2023-10-19T04:17:13;95713.22;;;4.95;89.83
70072;BME280;57434;42.794;23.302;2023-10-19T04:18:15;95751.81;;;5.15;89.67
70072;BME280;57434;42.794;23.302;2023-10-19T04:19:17;95533.03;;;3.75;89.78
70072;BME280;57434;42.794;23.302;2023-10-19T04:20:19;95712.44;;;4.72;90.17
70072;BME280;57434;42.794;23.302;2023-10-19T04:21:21;95599.75;;;4.06;90.45
70072;BME280;57434;42.794;23.302;2023-10-19T04:22:22;95655.34;;;4.15;90.65
70072;BME280;57434;42.794;23.302;2023-10-19T04:23:25;95590.09;;;3.76;91.57
70072;BME280;57434;42.794;23.302;2023-10-19T04:24:27;95721.16;;;4.62;92.01
70072;BME280;57434;42.794;23.302;2023-10-19T04:25:29;95717.34;;;4.47;92.81
70072;BME280;57434;42.794;23.302;2023-10-19T04:26:31;95585.31;;;3.76;92.61
70072;BME280;57434;42.794;23.302;2023-10-19T04:27:33;95744.28;;;4.81;92.74
70072;BME280;57434;42.794;23.302;2023-10-19T04:28:35;95713.06;;;4.55;92.93
70072;BME280;57434;42.794;23.302;2023-10-19T04:29:37;95551.09;;;3.58;92.79
70072;BME280;57434;42.794;23.302;2023-10-19T04:30:39;95620.19;;;3.99;93.27
70072;BME280;57434;42.794;23.302;2023-10-19T04:31:41;95732.63;;;4.51;93.88
70072;BME280;57434;42.794;23.302;2023-10-19T04:32:43;95749.78;;;4.71;94.36
70072;BME280;57434;42.794;23.302;2023-10-19T04:33:45;95718.03;;;4.60;94.30
70072;BME280;57434;42.794;23.302;2023-10-19T04:34:47;95718.09;;;4.47;94.48
70072;BME280;57434;42.794;23.302;2023-10-19T04:35:49;95549.78;;;3.50;94.59
70072;BME280;57434;42.794;23.302;2023-10-19T04:36:51;95714.16;;;4.57;94.80
70072;BME280;57434;42.794;23.302;2023-10-19T04:37:53;95563.19;;;3.64;94.99
70072;BME280;57434;42.794;23.302;2023-10-19T04:38:55;95739.91;;;4.70;94.99
70072;BME280;57434;42.794;23.302;2023-10-19T04:39:57;95727.59;;;4.81;94.72
70072;BME280;57434;42.794;23.302;2023-10-19T04:41:09;95755.50;;;4.90;94.48
70072;BME280;57434;42.794;23.302;2023-10-19T04:42:11;95539.81;;;3.74;93.84
70072;BME280;57434;42.794;23.302;2023-10-19T04:43:13;95708.78;;;4.85;93.96
70072;BME280;57434;42.794;23.302;2023-10-19T04:44:15;95716.81;;;4.83;93.38
70072;BME280;57434;42.794;23.302;2023-10-19T04:45:17;95558.63;;;3.92;92.88
70072;BME280;57434;42.794;23.302;2023-10-19T04:46:19;95531.03;;;3.75;92.80
70072;BME280;57434;42.794;23.302;2023-10-19T04:47:21;95697.81;;;4.81;92.63
70072;BME280;57434;42.794;23.302;2023-10-19T04:48:26;95549.38;;;3.95;92.55
70072;BME280;57434;42.794;23.302;2023-10-19T04:49:27;95587.81;;;4.18;92.43
70072;BME280;57434;42.794;23.302;2023-10-19T04:50:29;95728.81;;;4.92;92.64
70072;BME280;57434;42.794;23.302;2023-10-19T04:51:31;95542.69;;;3.83;92.46
70072;BME280;57434;42.794;23.302;2023-10-19T04:52:33;95498.34;;;3.01;92.44
70072;BME280;57434;42.794;23.302;2023-10-19T04:53:35;95692.44;;;4.87;93.04
70072;BME280;57434;42.794;23.302;2023-10-19T04:54:37;95725.16;;;4.83;92.90
70072;BME280;57434;42.794;23.302;2023-10-19T04:55:39;95695.03;;;4.81;92.83
70072;BME280;57434;42.794;23.302;2023-10-19T04:56:41;95632.28;;;4.49;92.63
70072;BME280;57434;42.794;23.302;2023-10-19T04:57:42;95642.50;;;4.52;92.71
70072;BME280;57434;42.794;23.302;2023-10-19T04:58:44;95638.94;;;4.52;92.69
70072;BME280;57434;42.794;23.302;2023-10-19T04:59:47;95715.44;;;5.00;92.76
70072;BME280;57434;42.794;23.302;2023-10-19T05:00:49;95707.06;;;4.78;92.28
70072;BME280;57434;42.794;23.302;2023-10-19T05:01:51;95676.47;;;4.78;92.02
70072;BME280;57434;42.794;23.302;2023-10-19T05:02:53;95702.53;;;4.71;92.42
70072;BME280;57434;42.794;23.302;2023-10-19T05:03:55;95669.44;;;4.64;92.22
70072;BME280;57434;42.794;23.302;2023-10-19T05:04:56;95719.69;;;4.92;92.50
70072;BME280;57434;42.794;23.302;2023-10-19T05:05:58;95720.94;;;4.78;92.89
70072;BME280;57434;42.794;23.302;2023-10-19T05:07:00;95726.53;;;5.00;92.49
70072;BME280;57434;42.794;23.302;2023-10-19T05:08:02;95560.16;;;3.93;92.20
70072;BME280;57434;42.794;23.302;2023-10-19T05:09:04;95723.84;;;4.74;92.01
70072;BME280;57434;42.794;23.302;2023-10-19T05:10:06;95529.38;;;3.78;92.15
70072;BME280;57434;42.794;23.302;2023-10-19T05:11:08;95595.81;;;4.16;92.30
70072;BME280;57434;42.794;23.302;2023-10-19T05:12:10;95708.88;;;4.72;92.35
70072;BME280;57434;42.794;23.302;2023-10-19T05:13:12;95593.16;;;4.13;92.09
70072;BME280;57434;42.794;23.302;2023-10-19T05:14:14;95710.00;;;4.96;92.32
70072;BME280;57434;42.794;23.302;2023-10-19T05:58:04;95717.63;;;5.85;90.17
70072;BME280;57434;42.794;23.302;2023-10-19T05:59:05;95625.84;;;5.05;90.93
70072;BME280;57434;42.794;23.302;2023-10-19T06:00:11;95760.03;;;5.89;91.46
70072;BME280;57434;42.794;23.302;2023-10-19T06:01:13;95751.13;;;6.03;91.13
70072;BME280;57434;42.794;23.302;2023-10-19T06:02:15;95690.41;;;5.80;90.95
70072;BME280;57434;42.794;23.302;2023-10-19T06:03:17;95753.31;;;6.08;90.73
70072;BME280;57434;42.794;23.302;2023-10-19T06:04:19;95735.81;;;6.17;90.57
70072;BME280;57434;42.794;23.302;2023-10-19T06:05:22;95702.78;;;5.88;90.26
70072;BME280;57434;42.794;23.302;2023-10-19T06:06:24;95737.81;;;6.17;90.51
70072;BME280;57434;42.794;23.302;2023-10-19T06:07:27;95730.09;;;6.21;90.38
70072;BME280;57434;42.794;23.302;2023-10-19T06:08:28;95755.50;;;6.41;90.39
70072;BME280;57434;42.794;23.302;2023-10-19T06:09:30;95762.91;;;6.26;90.11
70072;BME280;57434;42.794;23.302;2023-10-19T06:10:32;95690.78;;;5.51;90.28
70072;BME280;57434;42.794;23.302;2023-10-19T06:11:34;95740.94;;;6.19;90.75
70072;BME280;57434;42.794;23.302;2023-10-19T06:12:36;95560.69;;;5.15;90.70
70072;BME280;57434;42.794;23.302;2023-10-19T06:13:37;95714.03;;;6.34;90.76
70072;BME280;57434;42.794;23.302;2023-10-19T06:14:39;95751.06;;;6.62;90.55
70072;BME280;57434;42.794;23.302;2023-10-19T06:15:41;95723.63;;;6.51;90.73
70072;BME280;57434;42.794;23.302;2023-10-19T06:16:43;95756.31;;;6.51;90.89
70072;BME280;57434;42.794;23.302;2023-10-19T06:17:45;95690.66;;;6.31;90.54